Terminal Aerodrome Forecast
Issued by NWS

Home | Current Version | Previous Version | Text Only | Print | Product List | Glossary On
Versions: 1 2 3 4 5 6 7 8 9 10 11 12 13 14 15 16
925
FTUS45 KTFX 251722
TAFCTB
TAF
KCTB 251722Z 2518/2618 25015G30KT P6SM BKN050
     FM260200 24015KT P6SM FEW050
     FM261200 25008KT P6SM SKC=

USA.gov is the U.S. government's official web portal to all federal, state and local government web resources and services.